Terminal Aerodrome Forecast
Issued by NWS

Home | Current Version | Previous Version | Graphics & Text | Print | Product List | Glossary On
Versions: 1 2 3 4 5 6 7 8 9 10 11 12 13 14 15 16 17 18 19 20 21
149
FTUS43 KMPX 181753
TAFAXN
TAF
KAXN 181753Z 1818/1918 14015G25KT P6SM OVC100
     FM182000 05011G17KT P6SM OVC070
     FM190000 36016G22KT P6SM VCSH OVC015
     FM190300 36016G22KT P6SM OVC015 PROB30 1903/1909 4SM -SN
     FM190900 02013G20KT P6SM OVC015=

USA.gov is the U.S. government's official web portal to all federal, state and local government web resources and services.